Terminal Aerodrome Forecast
Issued by NWS

Home | Current Version | Previous Version | Text Only | Print | Product List | Glossary On
Versions: 1 2 3 4 5 6 7 8 9 10 11 12 13 14 15 16
000
FTUS45 KABQ 201131
TAFSAF
TAF
KSAF 201131Z 2012/2112 32007KT P6SM FEW035 BKN060
     FM201600 32014KT P6SM SCT050
     FM210100 34006KT P6SM SKC=

USA.gov is the U.S. government's official web portal to all federal, state and local government web resources and services.